createdAt,value
2022-12-08T00:01:11.336Z,100371.00
2022-12-08T00:03:37.825Z,100365.22
2022-12-08T00:06:23.210Z,100369.50
2022-12-08T00:09:08.353Z,100373.88
2022-12-08T00:11:34.669Z,100373.88
2022-12-08T00:14:01.133Z,100376.75
2022-12-08T00:16:27.500Z,100371.00
2022-12-08T00:18:53.876Z,100374.66
2022-12-08T00:21:20.208Z,100369.56
2022-12-08T00:23:46.527Z,100360.94
2022-12-08T00:26:12.836Z,100358.06
2022-12-08T00:28:39.173Z,100353.72
2022-12-08T00:31:08.930Z,100357.97
2022-12-08T00:33:35.278Z,100357.97
2022-12-08T00:36:07.475Z,100345.72
2022-12-08T00:38:33.812Z,100350.75
2022-12-08T00:41:00.133Z,100356.44
2022-12-08T00:43:26.726Z,100349.22
2022-12-08T00:45:53.113Z,100337.69
2022-12-08T00:48:19.483Z,100342.03
2022-12-08T00:50:46.072Z,100348.53
2022-12-08T00:53:12.393Z,100343.50
2022-12-08T00:55:38.721Z,100332.75
2022-12-08T00:58:05.044Z,100339.25
2022-12-08T01:00:31.383Z,100329.19
2022-12-08T01:02:57.745Z,100332.00
2022-12-08T01:05:24.183Z,100334.88
2022-12-08T01:07:50.647Z,100331.25
2022-12-08T01:10:17.021Z,100334.81
2022-12-08T01:12:43.332Z,100331.25
2022-12-08T01:15:09.775Z,100340.59
2022-12-08T01:17:36.854Z,100333.34
2022-12-08T01:20:03.783Z,100329.72
2022-12-08T01:22:30.277Z,100329.00
2022-12-08T01:24:56.612Z,100324.63
2022-12-08T01:27:22.928Z,100318.88
2022-12-08T01:29:49.248Z,100318.88
2022-12-08T01:32:15.565Z,100319.66
2022-12-08T01:34:41.885Z,100313.19
2022-12-08T01:37:08.241Z,100316.06
2022-12-08T01:39:34.572Z,100303.16
2022-12-08T01:42:00.890Z,100305.28
2022-12-08T01:44:27.143Z,100297.31
2022-12-08T01:46:53.471Z,100295.84
2022-12-08T01:49:26.411Z,100296.56
2022-12-08T01:51:54.649Z,100295.84
2022-12-08T01:54:21.093Z,100291.44
2022-12-08T01:56:52.676Z,100287.88
2022-12-08T01:59:19.601Z,100292.16
2022-12-08T02:01:50.275Z,100288.53
2022-12-08T02:04:16.650Z,100275.63
2022-12-08T02:06:43.519Z,100269.13
2022-12-08T02:09:09.852Z,100272.66
2022-12-08T02:11:36.161Z,100268.41
2022-12-08T02:14:04.127Z,100264.09
2022-12-08T02:16:35.462Z,100264.09
2022-12-08T02:19:36.062Z,100263.44
2022-12-08T02:22:11.336Z,100268.47
2022-12-08T02:24:41.759Z,100258.34
2022-12-08T02:27:26.636Z,100262.63
2022-12-08T02:29:59.009Z,100252.47
2022-12-08T02:32:32.198Z,100254.66
2022-12-08T02:34:59.567Z,100245.28
2022-12-08T02:37:33.165Z,100250.97
2022-12-08T02:40:29.018Z,100246.72
2022-12-08T02:42:56.486Z,100243.84
2022-12-08T02:45:25.202Z,100233.78
2022-12-08T02:47:51.669Z,100233.84
2022-12-08T02:50:18.095Z,100234.59
2022-12-08T02:52:44.994Z,100241.06
2022-12-08T02:55:13.252Z,100233.94
2022-12-08T02:57:44.137Z,100232.38
2022-12-08T03:00:13.709Z,100228.81
2022-12-08T03:02:44.540Z,100214.38
2022-12-08T03:05:37.111Z,100209.28
2022-12-08T03:08:18.659Z,100210.69
2022-12-08T03:11:04.523Z,100212.84
2022-12-08T03:13:34.746Z,100207.00
2022-12-08T03:16:01.116Z,100201.25
2022-12-08T03:18:28.177Z,100200.53
2022-12-08T03:20:54.497Z,100199.09
2022-12-08T03:23:20.809Z,100206.34
2022-12-08T03:26:16.227Z,100199.16
2022-12-08T03:28:42.560Z,100194.91
2022-12-08T03:31:10.001Z,100196.28
2022-12-08T03:33:37.034Z,100193.41
2022-12-08T03:36:04.137Z,100192.69
2022-12-08T03:38:40.107Z,100189.06
2022-12-08T03:41:18.260Z,100184.06
2022-12-08T03:43:54.225Z,100179.03
2022-12-08T03:48:47.017Z,100181.97
2022-12-08T03:51:13.353Z,100174.78
2022-12-08T03:53:39.726Z,100173.34
2022-12-08T03:56:06.723Z,100169.03
2022-12-08T03:58:37.219Z,100163.28
2022-12-08T04:01:03.942Z,100163.28
2022-12-08T04:03:30.279Z,100162.56
2022-12-08T04:05:56.611Z,100157.53
2022-12-08T04:08:22.967Z,100157.53
2022-12-08T04:10:49.322Z,100154.59
2022-12-08T04:13:15.634Z,100148.84
2022-12-08T04:15:45.405Z,100151.03
2022-12-08T04:18:11.744Z,100145.97
2022-12-08T04:20:41.401Z,100141.59
2022-12-08T04:23:07.897Z,100135.84
2022-12-08T04:25:34.505Z,100144.56
2022-12-08T04:28:00.830Z,100147.44
2022-12-08T04:30:27.157Z,100147.44
2022-12-08T04:32:53.477Z,100143.81
2022-12-08T04:35:19.821Z,100149.59
2022-12-08T04:37:46.156Z,100143.09
2022-12-08T04:40:12.615Z,100141.59
2022-12-08T04:42:38.945Z,100147.28
2022-12-08T04:45:05.491Z,100148.78
2022-12-08T04:47:31.800Z,100137.19
2022-12-08T04:49:58.159Z,100144.41
2022-12-08T04:52:24.468Z,100140.88
2022-12-08T04:54:50.852Z,100134.38
2022-12-08T04:57:17.168Z,100127.16
2022-12-08T04:59:43.493Z,100126.47
2022-12-08T05:02:09.906Z,100132.97
2022-12-08T05:04:36.328Z,100126.56
2022-12-08T05:07:02.649Z,100127.22
2022-12-08T05:09:29.030Z,100121.53
2022-12-08T05:11:55.706Z,100120.09
2022-12-08T05:14:22.117Z,100117.97
2022-12-08T05:16:48.543Z,100118.66
2022-12-08T05:19:14.945Z,100117.22
2022-12-08T05:21:41.264Z,100116.50
2022-12-08T05:24:07.580Z,100121.53
2022-12-08T05:26:33.905Z,100118.56
2022-12-08T05:29:00.225Z,100112.88
2022-12-08T05:31:26.610Z,100111.44
2022-12-08T05:33:53.081Z,100118.66
2022-12-08T05:36:19.395Z,100107.06
2022-12-08T05:38:45.759Z,100105.59
2022-12-08T05:41:15.890Z,100111.38
2022-12-08T05:43:42.209Z,100115.63
2022-12-08T05:46:08.559Z,100111.38
2022-12-08T05:48:34.925Z,100109.16
2022-12-08T05:51:01.317Z,100108.41
2022-12-08T05:53:27.696Z,100107.00
2022-12-08T05:55:54.031Z,100106.34
2022-12-08T05:58:20.749Z,100102.78
2022-12-08T06:00:47.106Z,100104.19
2022-12-08T06:03:13.687Z,100097.22
2022-12-08T06:05:40.595Z,100100.94
2022-12-08T06:08:06.970Z,100089.50
2022-12-08T06:10:33.431Z,100090.28
2022-12-08T06:12:59.748Z,100091.03
2022-12-08T06:15:26.143Z,100080.19
2022-12-08T06:17:52.454Z,100091.72
2022-12-08T06:20:27.889Z,100084.66
2022-12-08T06:22:54.345Z,100094.91
2022-12-08T06:25:20.744Z,100086.25
2022-12-08T06:27:47.053Z,100095.63
2022-12-08T06:30:13.471Z,100096.44
2022-12-08T06:32:39.785Z,100092.22
2022-12-08T06:35:06.153Z,100094.47
2022-12-08T06:37:32.464Z,100108.19
2022-12-08T06:39:58.794Z,100104.03
2022-12-08T06:42:43.792Z,100095.47
2022-12-08T06:45:10.636Z,100096.94
2022-12-08T06:47:36.965Z,100099.84
2022-12-08T06:50:03.836Z,100094.19
2022-12-08T06:52:30.334Z,100102.22
2022-12-08T06:54:56.652Z,100105.28
2022-12-08T06:57:24.152Z,100108.75
2022-12-08T06:59:50.462Z,100113.22
2022-12-08T07:02:17.225Z,100111.78
2022-12-08T07:04:43.672Z,100117.53
2022-12-08T07:07:10.047Z,100108.81
2022-12-08T07:09:36.774Z,100120.41
2022-12-08T07:12:03.548Z,100121.59
2022-12-08T07:14:29.865Z,100122.47
2022-12-08T07:16:56.263Z,100124.91
2022-12-08T07:19:22.663Z,100125.47
2022-12-08T07:21:48.991Z,100122.81
2022-12-08T07:24:15.315Z,100111.75
2022-12-08T07:26:41.635Z,100111.16
2022-12-08T07:29:09.119Z,100109.69
2022-12-08T07:31:35.443Z,100109.63
2022-12-08T07:34:01.780Z,100114.03
2022-12-08T07:36:28.207Z,100115.06
2022-12-08T07:38:54.534Z,100109.88
2022-12-08T07:41:23.486Z,100121.72
2022-12-08T07:43:50.127Z,100111.81
2022-12-08T07:46:17.286Z,100115.25
2022-12-08T07:48:43.645Z,100115.38
2022-12-08T07:51:10.762Z,100112.44
2022-12-08T07:53:42.294Z,100111.75
2022-12-08T07:56:09.466Z,100110.44
2022-12-08T07:58:35.781Z,100108.75
2022-12-08T08:01:02.220Z,100110.34
2022-12-08T08:03:28.685Z,100121.41
2022-12-08T08:05:55.025Z,100130.78
2022-12-08T08:08:21.512Z,100119.38
2022-12-08T08:10:47.928Z,100125.75
2022-12-08T08:13:14.318Z,100127.34
2022-12-08T08:15:40.759Z,100122.94
2022-12-08T08:18:07.119Z,100128.06
2022-12-08T08:20:33.436Z,100129.50
2022-12-08T08:22:59.741Z,100127.41
2022-12-08T08:25:26.090Z,100120.22
2022-12-08T08:27:52.594Z,100117.34
2022-12-08T08:30:21.036Z,100126.78
2022-12-08T08:32:47.799Z,100124.66
2022-12-08T08:35:14.128Z,100121.78
2022-12-08T08:37:43.101Z,100124.75
2022-12-08T08:40:13.486Z,100123.91
2022-12-08T08:42:39.947Z,100126.25
2022-12-08T08:45:06.421Z,100123.97
2022-12-08T08:47:32.988Z,100121.88
2022-12-08T08:49:59.311Z,100133.97
2022-12-08T08:52:25.744Z,100125.56
2022-12-08T08:54:52.076Z,100121.31
2022-12-08T08:57:23.765Z,100119.25
2022-12-08T08:59:51.780Z,100115.31
2022-12-08T09:02:18.269Z,100117.00
2022-12-08T09:04:44.765Z,100114.25
2022-12-08T09:07:11.146Z,100112.59
2022-12-08T09:09:37.697Z,100109.94
2022-12-08T09:12:04.049Z,100116.72
2022-12-08T09:14:30.356Z,100118.41
2022-12-08T09:16:56.677Z,100116.31
2022-12-08T09:19:22.996Z,100114.84
2022-12-08T09:21:49.360Z,100117.56
2022-12-08T09:24:16.399Z,100106.03
2022-12-08T09:26:43.698Z,100112.03
2022-12-08T09:29:10.435Z,100103.53
2022-12-08T09:31:36.820Z,100102.28
2022-12-08T09:34:03.692Z,100102.19
2022-12-08T09:36:30.100Z,100094.72
2022-12-08T09:38:56.417Z,100090.56
2022-12-08T09:41:22.647Z,100097.16
2022-12-08T09:44:00.506Z,100107.75
2022-12-08T09:46:27.088Z,100086.75
2022-12-08T09:48:57.252Z,100091.56
2022-12-08T09:51:24.958Z,100088.09
2022-12-08T09:54:01.604Z,100085.91
2022-12-08T09:56:30.270Z,100092.41
2022-12-08T09:58:57.771Z,100093.13
2022-12-08T10:01:26.542Z,100087.34
2022-12-08T10:03:54.711Z,100082.97
2022-12-08T10:06:21.770Z,100084.28
2022-12-08T10:08:52.562Z,100085.69
2022-12-08T10:11:30.953Z,100076.69
2022-12-08T10:13:59.993Z,100074.31
2022-12-08T10:16:30.292Z,100073.81
2022-12-08T10:18:57.841Z,100069.69
2022-12-08T10:21:25.883Z,100082.53
2022-12-08T10:23:53.316Z,100074.94
2022-12-08T10:26:20.225Z,100078.66
2022-12-08T10:28:46.542Z,100061.72
2022-12-08T10:31:16.637Z,100080.69
2022-12-08T10:33:44.029Z,100069.16
2022-12-08T10:36:10.372Z,100062.13
2022-12-08T10:38:37.161Z,100064.31
2022-12-08T10:41:07.397Z,100066.97
2022-12-08T10:43:33.708Z,100069.84
2022-12-08T10:46:12.868Z,100068.94
2022-12-08T10:48:46.833Z,100070.72
2022-12-08T10:51:21.648Z,100055.63
2022-12-08T10:53:47.961Z,100060.03
2022-12-08T10:56:14.719Z,100063.34
2022-12-08T10:58:41.633Z,100067.13
2022-12-08T11:01:14.760Z,100055.56
2022-12-08T11:04:00.121Z,100059.59
2022-12-08T11:06:29.346Z,100055.38
2022-12-08T11:08:59.901Z,100045.31
2022-12-08T11:11:38.506Z,100047.41
2022-12-08T11:14:08.315Z,100042.47
2022-12-08T11:16:34.921Z,100048.66
2022-12-08T11:19:01.841Z,100050.19
2022-12-08T11:21:34.189Z,100049.88
2022-12-08T11:24:00.525Z,100040.22
2022-12-08T11:26:28.218Z,100036.84
2022-12-08T11:28:54.860Z,100042.59
2022-12-08T11:31:22.742Z,100033.78
2022-12-08T11:33:49.477Z,100034.56
2022-12-08T11:36:15.992Z,100032.28
2022-12-08T11:38:45.412Z,100034.69
2022-12-08T11:41:16.395Z,100037.00
2022-12-08T11:43:49.330Z,100040.41
2022-12-08T11:46:17.693Z,100037.78
2022-12-08T11:48:47.132Z,100042.06
2022-12-08T11:51:15.224Z,100039.22
2022-12-08T11:53:41.469Z,100039.16
2022-12-08T11:56:10.549Z,100043.50
2022-12-08T11:58:41.553Z,100047.09
2022-12-08T12:01:12.843Z,100045.75
2022-12-08T12:03:40.492Z,100035.47
2022-12-08T12:06:18.595Z,100034.59
2022-12-08T12:09:02.050Z,100046.09
2022-12-08T12:11:50.137Z,100045.75
2022-12-08T12:14:18.277Z,100040.81
2022-12-08T12:16:48.426Z,100039.47
2022-12-08T12:19:15.368Z,100043.75
2022-12-08T12:21:45.172Z,100042.66
2022-12-08T12:24:34.301Z,100037.38
2022-12-08T12:27:02.893Z,100034.22
2022-12-08T12:29:33.146Z,100043.00
2022-12-08T12:32:03.180Z,100039.44
2022-12-08T12:34:33.266Z,100037.97
2022-12-08T12:37:04.818Z,100037.84
2022-12-08T12:39:32.006Z,100030.94
2022-12-08T12:41:59.556Z,100028.28
2022-12-08T12:44:28.801Z,100028.38
2022-12-08T12:47:01.848Z,100032.78
2022-12-08T12:49:40.350Z,100034.31
2022-12-08T12:52:15.499Z,100032.25
2022-12-08T12:54:50.524Z,100034.31
2022-12-08T12:57:19.701Z,100037.22
2022-12-08T12:59:55.478Z,100035.59
2022-12-08T13:02:23.124Z,100022.59
2022-12-08T13:04:53.209Z,100032.03
2022-12-08T13:07:20.691Z,100029.63
2022-12-08T13:09:46.996Z,100027.28
2022-12-08T13:12:19.677Z,100028.28
2022-12-08T13:14:48.979Z,100028.28
2022-12-08T13:17:26.103Z,100024.00
2022-12-08T13:19:53.976Z,100034.88
2022-12-08T13:22:38.936Z,100031.25
2022-12-08T13:25:23.766Z,100026.94
2022-12-08T13:27:53.388Z,100028.47
2022-12-08T13:30:38.252Z,100025.63
2022-12-08T13:33:23.332Z,100032.25
2022-12-08T13:35:53.132Z,100025.66
2022-12-08T13:38:19.628Z,100033.66
2022-12-08T13:40:45.996Z,100030.81
2022-12-08T13:43:16.776Z,100032.78
2022-12-08T13:57:11.706Z,100039.72
2022-12-08T13:59:42.457Z,100037.97
2022-12-08T14:02:16.345Z,100034.22
2022-12-08T14:05:16.952Z,100031.91
2022-12-08T14:07:33.796Z,100037.50
2022-12-08T14:10:00.526Z,100036.06
2022-12-08T14:12:27.121Z,100043.25
2022-12-08T14:15:04.402Z,100043.03
2022-12-08T14:17:31.159Z,100051.63
2022-12-08T14:20:02.032Z,100051.69
2022-12-08T14:22:34.956Z,100053.44
2022-12-08T14:25:01.366Z,100053.50
2022-12-08T14:27:29.946Z,100056.03
2022-12-08T14:29:56.944Z,100050.50
2022-12-08T14:32:24.412Z,100047.25
2022-12-08T14:34:51.359Z,100053.28
2022-12-08T14:37:17.698Z,100059.97
2022-12-08T14:39:44.328Z,100060.16
2022-12-08T14:42:18.810Z,100059.44
2022-12-08T14:44:45.142Z,100057.22
2022-12-08T14:47:11.549Z,100058.66
2022-12-08T14:49:38.507Z,100060.72
2022-12-08T14:52:11.378Z,100061.13
2022-12-08T14:54:37.908Z,100065.44
2022-12-08T14:57:04.251Z,100063.25
2022-12-08T14:59:30.521Z,100058.09
2022-12-08T15:02:10.096Z,100061.09
2022-12-08T15:04:39.224Z,100055.41
2022-12-08T15:07:16.496Z,100066.16
2022-12-08T15:09:46.856Z,100060.47
2022-12-08T15:12:13.120Z,100061.19
2022-12-08T15:14:42.175Z,100059.69
2022-12-08T15:17:26.898Z,100060.09
2022-12-08T15:19:56.643Z,100054.31
2022-12-08T15:22:23.024Z,100067.13
2022-12-08T15:24:49.343Z,100071.50
2022-12-08T15:27:19.125Z,100075.16
2022-12-08T15:29:46.178Z,100085.94
2022-12-08T15:32:12.518Z,100072.53
2022-12-08T15:34:38.860Z,100077.53
2022-12-08T15:37:05.937Z,100082.59
2022-12-08T15:39:32.864Z,100076.81
2022-12-08T15:41:59.383Z,100075.38
2022-12-08T15:44:25.769Z,100070.75
2022-12-08T15:46:52.261Z,100081.72
2022-12-08T15:49:19.341Z,100085.00
2022-12-08T15:51:45.672Z,100076.00
2022-12-08T15:54:12.001Z,100077.81
2022-12-08T15:56:50.587Z,100084.59
2022-12-08T15:59:26.525Z,100086.78
2022-12-08T16:01:52.999Z,100086.84
2022-12-08T16:05:11.495Z,100094.78
2022-12-08T16:07:21.491Z,100084.13
2022-12-08T16:09:48.483Z,100089.34
2022-12-08T16:13:40.494Z,100096.19
2022-12-08T16:18:14.336Z,100093.94
2022-12-08T16:23:42.515Z,100100.81
2022-12-08T16:27:00.941Z,100100.09
2022-12-08T16:29:06.966Z,100108.69
2022-12-08T16:31:33.434Z,100108.69
2022-12-08T16:33:59.869Z,100105.88
2022-12-08T16:36:26.189Z,100110.22
2022-12-08T16:38:52.524Z,100112.38
2022-12-08T16:41:37.532Z,100105.88
2022-12-08T16:44:04.301Z,100104.50
2022-12-08T16:46:30.732Z,100111.75
2022-12-08T16:48:58.799Z,100108.78
2022-12-08T16:51:27.048Z,100116.69
2022-12-08T16:53:54.046Z,100117.41
2022-12-08T16:56:20.684Z,100123.25
2022-12-08T16:58:46.993Z,100124.69
2022-12-08T17:01:13.888Z,100127.72
2022-12-08T17:03:41.015Z,100124.25
2022-12-08T17:06:17.100Z,100126.53
2022-12-08T17:08:43.684Z,100123.75
2022-12-08T17:11:11.785Z,100128.78
2022-12-08T17:13:39.156Z,100133.59
2022-12-08T17:16:12.418Z,100131.34
2022-12-08T17:18:38.800Z,100142.63
2022-12-08T17:21:08.865Z,100133.28
2022-12-08T17:23:35.208Z,100133.34
2022-12-08T17:26:01.521Z,100134.06
2022-12-08T17:28:58.428Z,100128.28
2022-12-08T17:31:14.427Z,100134.78
2022-12-08T17:33:40.809Z,100136.28
2022-12-08T17:36:14.584Z,100138.41
2022-12-08T17:38:41.039Z,100138.41
2022-12-08T17:41:07.826Z,100141.91
2022-12-08T17:43:34.163Z,100140.34
2022-12-08T17:46:00.516Z,100149.72
2022-12-08T17:48:26.857Z,100141.88
2022-12-08T17:50:53.206Z,100141.69
2022-12-08T17:53:19.586Z,100143.03
2022-12-08T17:55:53.185Z,100140.13
2022-12-08T17:58:19.555Z,100142.94
2022-12-08T18:00:45.914Z,100146.34
2022-12-08T18:03:12.262Z,100149.28
2022-12-08T18:05:38.608Z,100155.69
2022-12-08T18:08:05.066Z,100146.94
2022-12-08T18:10:31.478Z,100148.31
2022-12-08T18:12:58.439Z,100154.31
2022-12-08T18:15:24.780Z,100151.97
2022-12-08T18:17:51.116Z,100155.06
2022-12-08T18:20:17.433Z,100149.91
2022-12-08T18:22:43.766Z,100161.47
2022-12-08T18:25:10.333Z,100156.97
2022-12-08T18:27:41.499Z,100160.22
2022-12-08T18:30:09.785Z,100156.69
2022-12-08T18:32:36.109Z,100162.22
2022-12-08T18:35:02.445Z,100160.50
2022-12-08T18:37:28.766Z,100155.16
2022-12-08T18:39:55.127Z,100162.19
2022-12-08T18:42:24.142Z,100162.06
2022-12-08T18:44:56.239Z,100153.94
2022-12-08T18:47:22.539Z,100155.19
2022-12-08T18:49:48.849Z,100157.69
2022-12-08T18:52:17.877Z,100159.81
2022-12-08T18:55:05.866Z,100166.44
2022-12-08T18:57:33.257Z,100167.97
2022-12-08T18:59:59.621Z,100169.50
2022-12-08T19:02:25.979Z,100174.53
2022-12-08T19:04:54.689Z,100172.94
2022-12-08T19:07:21.119Z,100178.94
2022-12-08T19:09:47.446Z,100187.41
2022-12-08T19:12:13.818Z,100182.06
2022-12-08T19:14:40.479Z,100195.34
2022-12-08T19:17:07.016Z,100189.91
2022-12-08T19:19:33.586Z,100202.97
2022-12-08T19:21:59.922Z,100195.38
2022-12-08T19:24:26.258Z,100198.47
2022-12-08T19:26:52.589Z,100203.59
2022-12-08T19:29:18.920Z,100208.13
2022-12-08T19:31:45.352Z,100203.84
2022-12-08T19:34:14.495Z,100208.88
2022-12-08T19:36:42.930Z,100217.34
2022-12-08T19:39:38.347Z,100205.53
2022-12-08T19:42:24.960Z,100205.94
2022-12-08T19:44:54.081Z,100202.66
2022-12-08T19:47:21.181Z,100199.56
2022-12-08T19:49:47.691Z,100208.31
2022-12-08T19:52:14.015Z,100217.16
2022-12-08T19:54:40.356Z,100215.75
2022-12-08T19:57:06.679Z,100219.53
2022-12-08T19:59:33.012Z,100218.19
2022-12-08T20:01:59.459Z,100221.75
2022-12-08T20:04:26.084Z,100220.28
2022-12-08T20:06:52.468Z,100230.38
2022-12-08T20:09:18.812Z,100235.50
2022-12-08T20:11:45.131Z,100219.66
2022-12-08T20:14:11.474Z,100220.28
2022-12-08T20:16:37.929Z,100231.13
2022-12-08T20:19:04.314Z,100230.38
2022-12-08T20:21:30.661Z,100215.97
2022-12-08T20:23:57.014Z,100220.22
2022-12-08T20:26:23.447Z,100220.28
2022-12-08T20:28:49.800Z,100225.34
2022-12-08T20:31:23.246Z,100223.28
2022-12-08T20:33:49.679Z,100210.16
2022-12-08T20:36:18.103Z,100217.41
2022-12-08T20:38:45.023Z,100217.81
2022-12-08T20:41:11.371Z,100226.41
2022-12-08T20:43:37.750Z,100234.38
2022-12-08T20:46:07.462Z,100226.41
2022-12-08T20:48:33.991Z,100237.19
2022-12-08T20:51:00.407Z,100245.09
2022-12-08T20:53:27.064Z,100240.00
2022-12-08T20:55:53.391Z,100237.19
2022-12-08T20:58:19.929Z,100239.41
2022-12-08T21:00:46.414Z,100245.88
2022-12-08T21:03:12.999Z,100244.50
2022-12-08T21:05:39.560Z,100248.84
2022-12-08T21:08:06.484Z,100247.47
2022-12-08T21:10:33.143Z,100253.25
2022-12-08T21:13:01.775Z,100252.50
2022-12-08T21:15:28.352Z,100249.56
2022-12-08T21:17:54.939Z,100253.19
2022-12-08T21:20:21.786Z,100256.13
2022-12-08T21:22:48.227Z,100258.91
2022-12-08T21:25:14.598Z,100268.13
2022-12-08T21:27:40.977Z,100266.69
2022-12-08T21:30:08.072Z,100265.94
2022-12-08T21:32:34.768Z,100264.41
2022-12-08T21:35:01.277Z,100267.94
2022-12-08T21:37:27.729Z,100265.75
2022-12-08T21:39:54.112Z,100264.25
2022-12-08T21:42:38.999Z,100268.63
2022-12-08T21:45:05.567Z,100273.53
2022-12-08T21:47:32.155Z,100267.75
2022-12-08T21:49:58.765Z,100277.41
2022-12-08T21:52:25.144Z,100274.47
2022-12-08T21:54:51.489Z,100273.03
2022-12-08T21:57:18.009Z,100277.34
2022-12-08T21:59:44.438Z,100275.25
2022-12-08T22:02:19.437Z,100273.78
2022-12-08T22:04:49.648Z,100278.81
2022-12-08T22:07:16.311Z,100278.13
2022-12-08T22:09:42.771Z,100280.31
2022-12-08T22:12:09.337Z,100281.09
2022-12-08T22:14:35.667Z,100268.63
2022-12-08T22:17:02.205Z,100265.81
2022-12-08T22:19:29.940Z,100271.50
2022-12-08T22:21:57.089Z,100272.09
2022-12-08T22:24:23.730Z,100274.19
2022-12-08T22:26:50.291Z,100276.28
2022-12-08T22:29:16.891Z,100271.25
2022-12-08T22:31:43.639Z,100281.31
2022-12-08T22:34:10.248Z,100275.69
2022-12-08T22:36:36.834Z,100274.25
2022-12-08T22:39:03.655Z,100282.91
2022-12-08T22:41:30.116Z,100280.69
2022-12-08T22:43:56.559Z,100284.25
2022-12-08T22:46:23.432Z,100280.81
2022-12-08T22:48:50.116Z,100280.09
2022-12-08T22:51:16.568Z,100279.34
2022-12-08T22:53:43.162Z,100292.34
2022-12-08T22:56:10.165Z,100274.25
2022-12-08T22:58:36.909Z,100281.44
2022-12-08T23:01:03.400Z,100279.22
2022-12-08T23:03:30.888Z,100279.88
2022-12-08T23:05:57.385Z,100279.94
2022-12-08T23:08:23.907Z,100286.34
2022-12-08T23:10:50.943Z,100282.69
2022-12-08T23:13:17.377Z,100278.34
2022-12-08T23:15:43.945Z,100273.97
2022-12-08T23:18:18.770Z,100265.34
2022-12-08T23:20:45.645Z,100263.94
2022-12-08T23:23:11.956Z,100271.25
2022-12-08T23:25:41.399Z,100279.81
2022-12-08T23:28:07.893Z,100262.53
2022-12-08T23:30:34.217Z,100274.84
2022-12-08T23:33:00.683Z,100277.72
2022-12-08T23:35:27.296Z,100276.28
2022-12-08T23:37:53.770Z,100275.53
2022-12-08T23:40:20.116Z,100270.38
2022-12-08T23:42:46.434Z,100270.38
2022-12-08T23:45:12.948Z,100275.41
2022-12-08T23:47:39.460Z,100278.22
2022-12-08T23:50:06.675Z,100281.09
2022-12-08T23:52:33.277Z,100272.44
2022-12-08T23:54:59.594Z,100278.13
2022-12-08T23:57:25.921Z,100263.06
2022-12-08T23:59:52.231Z,100269.63
